createdAt,value
2018-07-20T00:01:27.886Z,6.27
2018-07-20T00:03:56.803Z,5.57
2018-07-20T00:06:25.715Z,6.67
2018-07-20T00:08:54.743Z,6.37
2018-07-20T00:11:23.657Z,6.33
2018-07-20T00:13:52.941Z,4.10
2018-07-20T00:16:22.212Z,4.53
2018-07-20T00:18:51.419Z,6.57
2018-07-20T00:21:20.736Z,5.23
2018-07-20T00:23:49.886Z,5.10
2018-07-20T00:26:18.889Z,6.67
2018-07-20T00:28:47.809Z,5.07
2018-07-20T00:31:16.715Z,5.50
2018-07-20T00:33:49.228Z,6.53
2018-07-20T00:36:18.167Z,3.83
2018-07-20T00:38:47.088Z,4.23
2018-07-20T00:41:15.969Z,8.87
2018-07-20T00:43:44.877Z,3.40
2018-07-20T00:46:13.774Z,6.10
2018-07-20T00:48:42.677Z,5.67
2018-07-20T00:51:11.566Z,4.27
2018-07-20T00:53:40.443Z,4.27
2018-07-20T00:56:09.358Z,8.30
2018-07-20T00:58:38.252Z,5.17
2018-07-20T01:01:07.153Z,4.50
2018-07-20T01:03:36.040Z,5.93
2018-07-20T01:06:05.309Z,6.90
2018-07-20T01:08:34.236Z,4.70
2018-07-20T01:11:03.162Z,3.67
2018-07-20T01:13:35.235Z,6.70
2018-07-20T01:16:04.430Z,5.30
2018-07-20T01:18:33.326Z,5.90
2018-07-20T01:21:02.229Z,7.67
2018-07-20T01:23:31.409Z,6.80
2018-07-20T01:26:00.570Z,6.23
2018-07-20T01:28:29.726Z,3.90
2018-07-20T01:30:58.856Z,5.83
2018-07-20T01:33:27.737Z,7.90
2018-07-20T01:35:56.615Z,6.77
2018-07-20T01:38:25.561Z,5.50
2018-07-20T01:40:54.461Z,6.00
2018-07-20T01:43:23.330Z,5.87
2018-07-20T01:45:52.230Z,7.93
2018-07-20T01:48:21.136Z,4.97
2018-07-20T01:50:50.070Z,5.63
2018-07-20T01:53:18.980Z,5.90
2018-07-20T01:55:47.955Z,3.93
2018-07-20T01:58:16.818Z,5.10
2018-07-20T02:00:45.769Z,6.87
2018-07-20T02:03:14.653Z,5.20
2018-07-20T02:05:43.573Z,6.93
2018-07-20T02:08:12.519Z,5.43
2018-07-20T02:10:41.420Z,5.57
2018-07-20T02:13:10.823Z,6.67
2018-07-20T02:15:39.749Z,5.50
2018-07-20T02:18:08.610Z,7.90
2018-07-20T02:20:37.518Z,5.33
2018-07-20T02:23:06.478Z,5.77
2018-07-20T02:25:35.523Z,4.87
2018-07-20T02:28:04.647Z,6.37
2018-07-20T02:30:33.804Z,7.73
2018-07-20T02:33:02.967Z,6.20
2018-07-20T02:35:31.883Z,7.50
2018-07-20T02:38:00.885Z,10.17
2018-07-20T02:40:29.782Z,5.93
2018-07-20T02:42:58.671Z,7.40
2018-07-20T02:45:27.608Z,7.50
2018-07-20T02:47:56.564Z,8.87
2018-07-20T02:50:25.472Z,7.80
2018-07-20T02:52:54.608Z,8.33
2018-07-20T02:55:23.784Z,7.43
2018-07-20T02:57:52.962Z,5.80
2018-07-20T03:00:22.209Z,6.63
2018-07-20T03:02:51.306Z,5.97
2018-07-20T03:05:20.204Z,8.47
2018-07-20T03:07:49.083Z,7.57
2018-07-20T03:10:18.070Z,7.63
2018-07-20T03:12:47.033Z,8.30
2018-07-20T03:15:15.930Z,7.77
2018-07-20T03:17:44.833Z,6.60
2018-07-20T03:20:13.702Z,6.33
2018-07-20T03:22:42.632Z,7.13
2018-07-20T03:25:11.524Z,8.73
2018-07-20T03:27:40.473Z,7.90
2018-07-20T03:30:09.359Z,8.00
2018-07-20T03:32:38.329Z,7.73
2018-07-20T03:35:07.307Z,9.53
2018-07-20T03:37:36.364Z,6.83
2018-07-20T03:40:05.297Z,10.27
2018-07-20T03:42:34.182Z,9.73
2018-07-20T03:45:03.153Z,9.10
2018-07-20T03:47:32.045Z,8.40
2018-07-20T03:50:00.951Z,9.73
2018-07-20T03:52:29.837Z,11.03
2018-07-20T03:54:58.785Z,9.23
2018-07-20T03:57:27.695Z,7.23
2018-07-20T03:59:56.597Z,8.57
2018-07-20T04:02:25.557Z,9.03
2018-07-20T04:04:54.417Z,8.77
2018-07-20T04:07:23.334Z,9.97
2018-07-20T04:09:52.245Z,8.27
2018-07-20T04:12:21.150Z,8.43
2018-07-20T04:14:50.050Z,7.97
2018-07-20T04:17:18.981Z,9.03
2018-07-20T04:19:47.905Z,10.57
2018-07-20T04:22:16.795Z,11.43
2018-07-20T04:24:45.718Z,11.13
2018-07-20T04:27:14.752Z,11.97
2018-07-20T04:29:47.208Z,8.77
2018-07-20T04:32:16.111Z,10.27
2018-07-20T04:34:45.013Z,10.03
2018-07-20T04:37:13.937Z,9.40
2018-07-20T04:39:42.835Z,9.13
2018-07-20T04:42:11.756Z,9.33
2018-07-20T04:44:40.668Z,8.87
2018-07-20T04:47:09.555Z,8.73
2018-07-20T04:49:38.449Z,8.20
2018-07-20T04:52:07.388Z,8.90
2018-07-20T04:54:36.287Z,10.77
2018-07-20T04:57:05.221Z,11.37
2018-07-20T04:59:34.343Z,8.53
2018-07-20T05:02:03.347Z,11.77
2018-07-20T05:04:32.268Z,8.33
2018-07-20T05:07:01.155Z,11.77
2018-07-20T05:09:30.080Z,8.97
2018-07-20T05:11:58.974Z,10.93
2018-07-20T05:14:27.891Z,7.20
2018-07-20T05:16:56.824Z,12.00
2018-07-20T05:19:26.773Z,9.17
2018-07-20T05:21:56.097Z,8.00
2018-07-20T05:24:25.088Z,8.90
2018-07-20T05:26:53.976Z,12.20
2018-07-20T05:29:22.877Z,8.93
2018-07-20T05:31:51.786Z,12.70
2018-07-20T05:34:20.685Z,7.50
2018-07-20T05:36:49.580Z,9.70
2018-07-20T05:39:18.549Z,8.13
2018-07-20T05:41:47.706Z,15.43
2018-07-20T05:44:16.810Z,10.80
2018-07-20T05:46:45.736Z,9.27
2018-07-20T05:49:14.661Z,11.33
2018-07-20T05:51:43.542Z,10.37
2018-07-20T05:54:12.447Z,15.70
2018-07-20T05:56:41.381Z,12.83
2018-07-20T05:59:10.269Z,14.23
2018-07-20T06:01:39.205Z,12.03
2018-07-20T06:04:08.686Z,12.03
2018-07-20T06:06:37.490Z,11.27
2018-07-20T06:09:09.196Z,20.93
2018-07-20T06:11:38.103Z,14.87
2018-07-20T06:14:07.492Z,14.47
2018-07-20T06:16:36.424Z,16.37
2018-07-20T06:19:05.408Z,14.33
2018-07-20T06:21:34.262Z,11.53
2018-07-20T06:24:03.159Z,14.00
2018-07-20T06:26:32.059Z,9.87
2018-07-20T06:29:00.935Z,13.20
2018-07-20T06:31:29.850Z,15.10
2018-07-20T06:33:58.790Z,13.80
2018-07-20T06:36:27.661Z,11.47
2018-07-20T06:38:56.569Z,16.57
2018-07-20T06:41:25.665Z,13.77
2018-07-20T06:43:54.546Z,17.43
2018-07-20T06:46:23.469Z,14.50
2018-07-20T06:48:52.397Z,11.77
2018-07-20T06:51:21.296Z,11.47
2018-07-20T06:53:50.217Z,11.70
2018-07-20T06:56:19.465Z,12.27
2018-07-20T06:58:48.393Z,9.37
2018-07-20T07:01:17.363Z,11.47
2018-07-20T07:03:46.323Z,11.33
2018-07-20T07:06:15.213Z,12.87
2018-07-20T07:08:44.217Z,13.17
2018-07-20T07:11:16.722Z,9.83
2018-07-20T07:13:45.632Z,13.37
2018-07-20T07:16:14.679Z,14.80
2018-07-20T07:18:43.633Z,15.07
2018-07-20T07:21:12.533Z,11.73
2018-07-20T07:23:41.528Z,9.70
2018-07-20T07:26:10.391Z,11.40
2018-07-20T07:28:40.289Z,15.20
2018-07-20T07:31:09.214Z,9.77
2018-07-20T07:33:38.087Z,12.57
2018-07-20T07:36:07.012Z,15.77
2018-07-20T07:38:35.936Z,11.50
2018-07-20T07:41:04.829Z,13.40
2018-07-20T07:43:37.840Z,14.60
2018-07-20T07:46:07.064Z,12.03
2018-07-20T07:48:36.770Z,13.97
2018-07-20T07:51:05.787Z,13.53
2018-07-20T07:53:34.698Z,14.73
2018-07-20T07:56:03.613Z,12.87
2018-07-20T07:58:32.539Z,12.87
2018-07-20T08:01:01.443Z,10.80
2018-07-20T08:03:30.394Z,13.50
2018-07-20T08:06:03.047Z,13.77
2018-07-20T08:08:31.949Z,15.13
2018-07-20T08:11:00.904Z,16.27
2018-07-20T08:13:29.807Z,17.23
2018-07-20T08:18:32.873Z,21.17
2018-07-20T08:21:01.813Z,20.40
2018-07-20T08:23:30.719Z,19.73
2018-07-20T08:25:59.795Z,17.80
2018-07-20T08:28:28.753Z,23.07
2018-07-20T08:30:57.697Z,19.70
2018-07-20T08:33:26.776Z,22.30
2018-07-20T08:35:55.695Z,16.93
2018-07-20T08:38:24.666Z,18.47
2018-07-20T08:40:53.562Z,19.00
2018-07-20T08:43:22.543Z,20.20
2018-07-20T08:45:51.623Z,18.43
2018-07-20T08:48:20.704Z,14.50
2018-07-20T08:50:49.733Z,22.90
2018-07-20T08:53:19.667Z,26.73
2018-07-20T08:55:48.620Z,19.17
2018-07-20T08:58:17.554Z,23.30
2018-07-20T09:00:49.554Z,21.00
2018-07-20T09:03:18.552Z,15.43
2018-07-20T09:05:47.458Z,14.37
2018-07-20T09:08:16.523Z,17.43
2018-07-20T09:10:45.626Z,19.07
2018-07-20T09:13:14.628Z,16.23
2018-07-20T09:15:43.521Z,19.30
2018-07-20T09:18:12.467Z,17.40
2018-07-20T09:20:41.580Z,19.27
2018-07-20T09:23:10.381Z,19.03
2018-07-20T09:25:39.290Z,20.90
2018-07-20T09:28:08.366Z,18.97
2018-07-20T09:30:37.314Z,17.20
2018-07-20T09:33:06.332Z,12.83
2018-07-20T09:35:35.242Z,11.53
2018-07-20T09:38:04.150Z,14.27
2018-07-20T09:40:33.128Z,15.70
2018-07-20T09:43:02.022Z,14.17
2018-07-20T09:45:30.970Z,9.93
2018-07-20T09:47:59.934Z,10.97
2018-07-20T09:50:28.849Z,15.90
2018-07-20T09:52:57.819Z,12.03
2018-07-20T09:55:26.737Z,16.10
2018-07-20T09:57:55.637Z,17.63
2018-07-20T10:00:29.944Z,13.10
2018-07-20T10:02:58.838Z,16.87
2018-07-20T10:05:27.939Z,12.90
2018-07-20T10:07:57.051Z,11.40
2018-07-20T10:10:26.004Z,15.37
2018-07-20T10:12:55.141Z,12.63
2018-07-20T10:15:24.039Z,12.17
2018-07-20T10:17:52.946Z,13.13
2018-07-20T10:20:21.898Z,11.57
2018-07-20T10:22:50.994Z,11.93
2018-07-20T10:25:19.928Z,11.87
2018-07-20T10:27:48.832Z,10.70
2018-07-20T10:30:17.747Z,17.90
2018-07-20T10:32:50.480Z,14.83
2018-07-20T10:35:19.399Z,15.00
2018-07-20T10:37:48.335Z,14.93
2018-07-20T10:40:17.406Z,11.67
2018-07-20T10:42:46.564Z,12.00
2018-07-20T10:45:15.472Z,12.07
2018-07-20T10:47:44.454Z,12.67
2018-07-20T10:50:13.366Z,12.23
2018-07-20T10:52:42.313Z,13.13
2018-07-20T10:55:11.277Z,12.43
2018-07-20T10:57:40.188Z,16.37
2018-07-20T11:00:09.105Z,13.70
2018-07-20T11:02:38.009Z,17.13
2018-07-20T11:05:06.939Z,15.47
2018-07-20T11:07:36.022Z,12.40
2018-07-20T11:10:05.276Z,12.63
2018-07-20T11:12:34.225Z,12.23
2018-07-20T11:15:03.388Z,16.53
2018-07-20T11:17:32.300Z,16.63
2018-07-20T11:20:01.228Z,10.97
2018-07-20T11:22:30.127Z,13.13
2018-07-20T11:24:59.060Z,15.50
2018-07-20T11:27:28.009Z,19.73
2018-07-20T11:29:56.929Z,16.70
2018-07-20T11:32:25.865Z,12.67
2018-07-20T11:34:54.843Z,15.77
2018-07-20T11:37:23.729Z,14.43
2018-07-20T11:39:52.687Z,12.37
2018-07-20T11:42:21.657Z,16.70
2018-07-20T11:44:50.709Z,12.77
2018-07-20T11:47:19.638Z,13.83
2018-07-20T11:49:48.611Z,13.33
2018-07-20T11:52:17.553Z,11.20
2018-07-20T11:54:46.481Z,9.30
2018-07-20T11:57:15.599Z,12.87
2018-07-20T11:59:44.546Z,11.33
2018-07-20T12:02:13.503Z,10.77
2018-07-20T12:04:42.433Z,9.17
2018-07-20T12:07:11.428Z,9.37
2018-07-20T12:09:40.800Z,7.50
2018-07-20T12:12:09.875Z,9.53
2018-07-20T12:14:38.779Z,10.33
2018-07-20T12:17:07.749Z,11.17
2018-07-20T12:19:36.649Z,12.73
2018-07-20T12:22:05.549Z,10.37
2018-07-20T12:24:34.484Z,14.27
2018-07-20T12:27:03.352Z,11.17
2018-07-20T12:29:32.350Z,8.97
2018-07-20T12:32:01.276Z,7.43
2018-07-20T12:34:30.218Z,8.13
2018-07-20T12:36:59.157Z,12.33
2018-07-20T12:39:28.336Z,10.17
2018-07-20T12:41:57.467Z,10.53
2018-07-20T12:44:26.647Z,7.97
2018-07-20T12:46:55.877Z,6.63
2018-07-20T12:49:24.767Z,9.20
2018-07-20T12:51:53.705Z,11.93
2018-07-20T12:54:22.617Z,9.20
2018-07-20T12:56:51.556Z,11.63
2018-07-20T12:59:20.658Z,9.00
2018-07-20T13:01:49.542Z,9.77
2018-07-20T13:04:22.198Z,8.33
2018-07-20T13:06:51.118Z,9.30
2018-07-20T13:09:21.522Z,10.50
2018-07-20T13:11:50.520Z,5.97
2018-07-20T13:14:19.421Z,9.23
2018-07-20T13:16:48.341Z,7.27
2018-07-20T13:19:17.261Z,7.30
2018-07-20T13:21:46.180Z,7.47
2018-07-20T13:24:15.085Z,8.20
2018-07-20T13:26:44.040Z,7.87
2018-07-20T13:29:12.928Z,7.03
2018-07-20T13:31:41.842Z,7.13
2018-07-20T13:34:10.803Z,7.70
2018-07-20T13:36:39.705Z,7.27
2018-07-20T13:39:10.222Z,7.83
2018-07-20T13:41:39.926Z,10.57
2018-07-20T13:44:08.943Z,7.67
2018-07-20T13:46:38.071Z,6.17
2018-07-20T13:49:07.052Z,6.53
2018-07-20T13:51:36.031Z,6.27
2018-07-20T13:54:04.966Z,7.77
2018-07-20T13:56:33.955Z,6.37
2018-07-20T13:59:02.949Z,7.77
2018-07-20T14:01:32.491Z,9.53
2018-07-20T14:04:01.999Z,6.67
2018-07-20T14:06:30.927Z,8.20
2018-07-20T14:08:59.862Z,7.00
2018-07-20T14:11:28.939Z,8.43
2018-07-20T14:13:57.819Z,10.43
2018-07-20T14:16:26.724Z,6.67
2018-07-20T14:18:55.638Z,10.23
2018-07-20T14:21:24.582Z,7.57
2018-07-20T14:23:53.564Z,8.70
2018-07-20T14:26:22.577Z,9.10
2018-07-20T14:28:51.488Z,7.23
2018-07-20T14:31:20.505Z,6.30
2018-07-20T14:33:49.672Z,6.27
2018-07-20T14:36:18.611Z,8.17
2018-07-20T14:38:47.553Z,12.90
2018-07-20T14:41:16.509Z,5.27
2018-07-20T14:43:45.596Z,7.93
2018-07-20T14:46:14.527Z,5.07
2018-07-20T14:48:47.015Z,7.30
2018-07-20T14:51:19.258Z,7.50
2018-07-20T14:53:48.196Z,9.53
2018-07-20T14:56:17.144Z,7.70
2018-07-20T14:58:46.179Z,7.93
2018-07-20T15:01:15.105Z,6.77
2018-07-20T15:03:44.013Z,10.10
2018-07-20T15:06:12.906Z,4.80
2018-07-20T15:08:41.849Z,6.87
2018-07-20T15:11:10.735Z,6.97
2018-07-20T15:13:39.710Z,6.57
2018-07-20T15:16:08.655Z,6.87
2018-07-20T15:18:37.586Z,6.43
2018-07-20T15:21:06.623Z,7.37
2018-07-20T15:23:35.532Z,8.17
2018-07-20T15:26:04.438Z,5.63
2018-07-20T15:28:33.340Z,7.17
2018-07-20T15:31:02.227Z,6.97
2018-07-20T15:33:31.169Z,6.30
2018-07-20T15:36:00.082Z,7.00
2018-07-20T15:38:29.340Z,6.83
2018-07-20T15:40:58.816Z,7.80
2018-07-20T15:43:27.788Z,8.17
2018-07-20T15:46:05.861Z,7.10
2018-07-20T15:48:25.700Z,7.57
2018-07-20T15:50:54.648Z,6.97
2018-07-20T15:53:38.579Z,6.10
2018-07-20T15:55:53.488Z,8.43
2018-07-20T15:58:23.066Z,6.33
2018-07-20T16:00:53.188Z,8.07
2018-07-20T16:03:22.964Z,7.03
2018-07-20T16:05:53.062Z,6.93
2018-07-20T16:08:21.990Z,10.53
2018-07-20T16:10:50.939Z,8.37
2018-07-20T16:13:19.850Z,8.67
2018-07-20T16:15:48.757Z,8.47
2018-07-20T16:18:17.801Z,8.63
2018-07-20T16:20:46.718Z,9.83
2018-07-20T16:23:15.922Z,9.07
2018-07-20T16:25:44.893Z,7.77
2018-07-20T16:28:13.747Z,8.60
2018-07-20T16:30:42.662Z,8.67
2018-07-20T16:33:11.785Z,8.87
2018-07-20T16:35:40.706Z,10.13
2018-07-20T16:38:09.649Z,11.27
2018-07-20T16:40:38.621Z,7.53
2018-07-20T16:43:07.549Z,9.33
2018-07-20T16:45:36.524Z,7.57
2018-07-20T16:48:05.641Z,8.30
2018-07-20T16:50:35.057Z,9.73
2018-07-20T16:53:04.016Z,8.50
2018-07-20T16:55:32.908Z,8.03
2018-07-20T16:58:01.828Z,10.33
2018-07-20T17:00:34.166Z,11.23
2018-07-20T17:03:03.092Z,8.77
2018-07-20T17:05:32.067Z,7.53
2018-07-20T17:08:01.075Z,9.37
2018-07-20T17:10:30.032Z,10.30
2018-07-20T17:12:58.925Z,7.83
2018-07-20T17:15:27.829Z,7.90
2018-07-20T17:17:56.745Z,9.53
2018-07-20T17:20:29.197Z,9.63
2018-07-20T17:22:58.116Z,9.83
2018-07-20T17:25:30.624Z,9.13
2018-07-20T17:27:59.527Z,8.40
2018-07-20T17:30:28.425Z,9.30
2018-07-20T17:32:57.345Z,8.27
2018-07-20T17:35:26.453Z,9.70
2018-07-20T17:37:55.454Z,9.60
2018-07-20T17:40:24.366Z,10.23
2018-07-20T17:42:53.585Z,8.50
2018-07-20T17:45:22.576Z,8.80
2018-07-20T17:47:51.530Z,8.07
2018-07-20T17:50:20.410Z,9.20
2018-07-20T17:52:52.885Z,8.67
2018-07-20T17:55:21.784Z,9.23
2018-07-20T17:57:50.733Z,7.43
2018-07-20T18:00:19.697Z,7.20
2018-07-20T18:02:48.645Z,9.83
2018-07-20T18:05:17.526Z,9.43
2018-07-20T18:07:46.497Z,11.93
2018-07-20T18:10:15.397Z,6.67
2018-07-20T18:12:44.301Z,8.27
2018-07-20T18:15:13.277Z,9.60
2018-07-20T18:17:42.301Z,8.43
2018-07-20T18:20:12.995Z,9.13
2018-07-20T18:22:45.658Z,8.00
2018-07-20T18:25:16.729Z,6.33
2018-07-20T18:27:46.692Z,6.67
2018-07-20T18:30:15.595Z,9.77
2018-07-20T18:32:44.608Z,5.87
2018-07-20T18:35:13.530Z,7.90
2018-07-20T18:37:42.480Z,8.50
2018-07-20T18:40:11.415Z,8.60
2018-07-20T18:42:41.227Z,9.17
2018-07-20T18:45:10.761Z,7.37
2018-07-20T18:47:39.774Z,10.80
2018-07-20T18:50:09.575Z,7.37
2018-07-20T18:52:38.742Z,8.60
2018-07-20T18:55:07.934Z,7.37
2018-07-20T18:57:36.820Z,7.87
2018-07-20T19:00:06.233Z,8.47
2018-07-20T19:02:35.117Z,8.73
2018-07-20T19:05:04.084Z,6.40
2018-07-20T19:07:33.003Z,7.83
2018-07-20T19:10:02.004Z,8.90
2018-07-20T19:12:31.462Z,5.60
2018-07-20T19:15:00.791Z,13.00
2018-07-20T19:17:30.425Z,7.77
2018-07-20T19:19:59.350Z,6.07
2018-07-20T19:22:28.378Z,6.63
2018-07-20T19:24:57.379Z,6.13
2018-07-20T19:27:26.385Z,8.10
2018-07-20T19:29:55.429Z,6.27
2018-07-20T19:32:24.414Z,5.97
2018-07-20T19:34:53.456Z,6.03
2018-07-20T19:37:22.688Z,7.63
2018-07-20T19:39:51.745Z,5.20
2018-07-20T19:42:20.588Z,6.90
2018-07-20T19:44:49.525Z,6.53
2018-07-20T19:47:18.451Z,5.57
2018-07-20T19:49:47.371Z,6.93
2018-07-20T19:52:16.318Z,5.27
2018-07-20T19:54:45.213Z,4.70
2018-07-20T19:57:14.430Z,6.13
2018-07-20T19:59:43.371Z,5.93
2018-07-20T20:02:12.422Z,8.37
2018-07-20T20:04:41.355Z,6.43
2018-07-20T20:07:10.304Z,5.67
2018-07-20T20:09:39.192Z,7.23
2018-07-20T20:12:08.124Z,6.77
2018-07-20T20:14:37.276Z,5.30
2018-07-20T20:17:07.162Z,5.67
2018-07-20T20:19:36.082Z,5.87
2018-07-20T20:22:05.439Z,5.73
2018-07-20T20:24:34.353Z,5.77
2018-07-20T20:27:04.288Z,6.87
2018-07-20T20:29:33.818Z,8.90
2018-07-20T20:32:02.902Z,6.70
2018-07-20T20:34:32.416Z,5.40
2018-07-20T20:37:01.309Z,6.30
2018-07-20T20:39:30.262Z,7.30
2018-07-20T20:41:59.226Z,8.30
2018-07-20T20:44:28.349Z,5.57
2018-07-20T20:46:57.251Z,6.70
2018-07-20T20:49:26.182Z,6.23
2018-07-20T20:51:55.071Z,7.73
2018-07-20T20:54:23.992Z,8.47
2018-07-20T20:56:52.987Z,8.30
2018-07-20T20:59:22.009Z,10.60
2018-07-20T21:01:51.054Z,6.37
2018-07-20T21:04:19.981Z,7.60
2018-07-20T21:06:48.875Z,9.37
2018-07-20T21:09:17.815Z,8.40
2018-07-20T21:11:50.554Z,8.50
2018-07-20T21:14:19.478Z,5.90
2018-07-20T21:16:48.396Z,9.57
2018-07-20T21:19:17.286Z,7.63
2018-07-20T21:21:49.487Z,5.83
2018-07-20T21:24:18.772Z,5.07
2018-07-20T21:26:47.709Z,7.27
2018-07-20T21:29:16.669Z,5.23
2018-07-20T21:31:45.554Z,5.23
2018-07-20T21:34:14.443Z,8.47
2018-07-20T21:36:43.349Z,8.97
2018-07-20T21:39:13.392Z,9.90
2018-07-20T21:41:43.492Z,7.50
2018-07-20T21:44:12.625Z,11.40
2018-07-20T21:46:41.649Z,8.70
2018-07-20T21:49:10.533Z,6.27
2018-07-20T21:51:39.679Z,8.20
2018-07-20T21:54:12.035Z,10.67
2018-07-20T21:56:40.995Z,9.43
2018-07-20T21:59:09.904Z,9.73
2018-07-20T22:01:38.837Z,10.47
2018-07-20T22:04:07.811Z,10.30
2018-07-20T22:06:36.743Z,9.77
2018-07-20T22:09:08.169Z,9.87
2018-07-20T22:11:37.437Z,6.67
2018-07-20T22:14:06.779Z,7.53
2018-07-20T22:16:36.211Z,6.20
2018-07-20T22:19:05.157Z,9.03
2018-07-20T22:21:34.181Z,10.13
2018-07-20T22:24:03.088Z,6.57
2018-07-20T22:26:32.113Z,9.10
2018-07-20T22:29:01.005Z,9.03
2018-07-20T22:31:30.298Z,11.03
2018-07-20T22:33:59.197Z,8.80
2018-07-20T22:36:28.219Z,8.00
2018-07-20T22:38:57.749Z,7.53
2018-07-20T22:41:26.652Z,7.43
2018-07-20T22:43:55.656Z,10.60
2018-07-20T22:46:24.542Z,9.77
2018-07-20T22:48:53.484Z,8.07
2018-07-20T22:51:22.435Z,10.67
2018-07-20T22:53:51.444Z,9.17
2018-07-20T22:56:20.948Z,7.13
2018-07-20T22:58:49.864Z,7.27
2018-07-20T23:01:19.073Z,8.63
2018-07-20T23:03:48.379Z,8.03
2018-07-20T23:06:17.514Z,8.47
2018-07-20T23:08:46.394Z,6.83
2018-07-20T23:11:15.287Z,11.63
2018-07-20T23:13:44.611Z,8.43
2018-07-20T23:16:13.862Z,6.77
2018-07-20T23:18:43.100Z,6.47
2018-07-20T23:21:12.007Z,6.47
2018-07-20T23:23:40.954Z,9.83
2018-07-20T23:26:09.895Z,8.73
2018-07-20T23:28:38.777Z,9.67
2018-07-20T23:31:11.305Z,8.37
2018-07-20T23:33:40.210Z,8.20
2018-07-20T23:36:09.118Z,10.73
2018-07-20T23:38:38.023Z,8.57
2018-07-20T23:41:07.461Z,6.77
2018-07-20T23:43:40.040Z,7.33
2018-07-20T23:46:08.989Z,8.00
2018-07-20T23:48:37.889Z,6.23
2018-07-20T23:51:06.890Z,8.93
2018-07-20T23:53:35.788Z,7.93
2018-07-20T23:56:04.847Z,7.73
2018-07-20T23:58:33.754Z,10.10
